Time;durP1;ratioP1;P1;durP2;ratioP2;P2;SDS_P1;SDS_P2;PMS_P1;PMS_P2;Temp;Humidity;BMP_temperature;BMP_pressure;BME280_temperature;BME280_humidity;BME280_pressure;Samples;Min_cycle;Max_cycle;Signal;HPM_P1;HPM_P2
2021/09/30 00:00:59;;;;;;;1.93;1.83;;;11.80;99.90;;;;;;5017770;28;20172;-81
2021/09/30 00:03:25;;;;;;;1.77;1.67;;;11.50;99.90;;;;;;5019129;28;20181;-81
2021/09/30 00:05:51;;;;;;;1.57;1.47;;;11.30;99.90;;;;;;5017874;28;20607;-81
2021/09/30 00:08:17;;;;;;;3.40;2.93;;;11.20;99.90;;;;;;5019082;28;20404;-82
2021/09/30 00:10:53;;;;;;;2.10;2.00;;;11.00;99.90;;;;;;5019717;28;20657;-80
2021/09/30 00:13:36;;;;;;;3.43;2.53;;;11.00;99.90;;;;;;5019073;28;20211;-81
2021/09/30 00:16:25;;;;;;;3.47;1.77;;;11.00;99.90;;;;;;5018193;28;20451;-82
2021/09/30 00:32:34;;;;;;;2.20;2.00;;;11.40;99.90;;;;;;5018534;28;20484;-81
2021/09/30 00:40:23;;;;;;;4.40;1.77;;;11.30;99.90;;;;;;5023703;28;20428;-82
2021/09/30 00:45:43;;;;;;;2.40;2.20;;;11.30;99.90;;;;;;5023462;28;20396;-82
2021/09/30 00:48:43;;;;;;;1.60;1.50;;;11.10;99.90;;;;;;5023308;28;20400;-82
2021/09/30 01:33:38;;;;;;;1.80;1.70;;;10.60;99.90;;;;;;5021341;28;20404;-82
2021/09/30 01:46:59;;;;;;;2.73;2.17;;;10.30;99.90;;;;;;5020829;28;20761;-81
2021/09/30 01:52:09;;;;;;;2.47;2.27;;;10.60;99.90;;;;;;5021511;28;20404;-81
2021/09/30 02:19:39;;;;;;;1.60;1.50;;;10.10;99.90;;;;;;5021973;28;20407;-82
2021/09/30 02:59:42;;;;;;;2.07;1.93;;;9.40;99.90;;;;;;5020300;28;20744;-80
2021/09/30 03:02:09;;;;;;;2.80;1.80;;;9.60;99.90;;;;;;5020285;28;20424;-82
2021/09/30 03:04:37;;;;;;;2.60;2.40;;;9.50;99.90;;;;;;5020564;28;20403;-82
2021/09/30 03:07:05;;;;;;;12.13;2.37;;;9.30;99.90;;;;;;5020092;28;20821;-82
2021/09/30 03:12:21;;;;;;;3.20;2.30;;;9.10;99.90;;;;;;5020332;28;20428;-82
2021/09/30 03:14:59;;;;;;;2.00;1.90;;;9.10;99.90;;;;;;5020179;28;20423;-82
2021/09/30 03:17:31;;;;;;;2.23;2.03;;;9.20;99.90;;;;;;5020719;28;20410;-82
2021/09/30 03:20:05;;;;;;;5.33;2.47;;;9.20;99.90;;;;;;5020108;28;20407;-82
2021/09/30 03:22:31;;;;;;;2.10;2.00;;;9.20;99.90;;;;;;5020754;28;20460;-81
2021/09/30 03:24:58;;;;;;;4.93;2.20;;;9.20;99.90;;;;;;5019779;28;20409;-81
2021/09/30 03:27:26;;;;;;;4.30;2.20;;;9.00;99.90;;;;;;5020905;28;20403;-81
2021/09/30 03:29:51;;;;;;;2.40;2.20;;;9.20;99.90;;;;;;5020742;28;20404;-81
2021/09/30 03:32:18;;;;;;;3.00;2.70;;;9.40;99.90;;;;;;5020472;28;20408;-81
2021/09/30 03:34:46;;;;;;;4.20;2.00;;;9.00;99.90;;;;;;5021687;28;20170;-82
2021/09/30 03:37:13;;;;;;;2.70;1.90;;;8.90;99.90;;;;;;5020391;28;20471;-81
2021/09/30 03:39:39;;;;;;;2.17;1.97;;;8.80;99.90;;;;;;5020124;28;20451;-81
2021/09/30 03:42:05;;;;;;;2.30;2.10;;;8.80;99.90;;;;;;5020367;28;20508;-81
2021/09/30 03:44:31;;;;;;;2.70;2.13;;;8.80;99.90;;;;;;5020465;28;20860;-81
2021/09/30 03:46:57;;;;;;;5.10;2.13;;;8.90;99.90;;;;;;5017583;28;20914;-81
2021/09/30 03:49:27;;;;;;;7.50;2.20;;;9.20;99.90;;;;;;5016401;28;20429;-81
2021/09/30 03:52:00;;;;;;;3.13;2.00;;;9.20;99.90;;;;;;4999256;28;20166;-81
2021/09/30 03:54:34;;;;;;;2.73;1.93;;;9.20;99.90;;;;;;5000152;28;20401;-82
2021/09/30 03:57:05;;;;;;;2.83;1.90;;;9.20;99.90;;;;;;4999897;28;20459;-82
2021/09/30 03:59:32;;;;;;;2.00;1.80;;;9.10;99.90;;;;;;5000762;28;20403;-81
2021/09/30 04:02:00;;;;;;;2.70;2.17;;;9.00;99.90;;;;;;4999660;28;20420;-82
2021/09/30 04:04:29;;;;;;;2.80;1.97;;;8.90;99.90;;;;;;4999992;28;20441;-82
2021/09/30 04:06:56;;;;;;;2.30;2.10;;;8.70;99.90;;;;;;5004519;28;20410;-81
2021/09/30 04:09:27;;;;;;;2.00;1.90;;;8.70;99.90;;;;;;5006355;28;20403;-82
2021/09/30 04:11:56;;;;;;;8.27;1.93;;;8.70;99.90;;;;;;5005309;28;20440;-81
2021/09/30 04:14:22;;;;;;;3.27;2.23;;;8.80;99.90;;;;;;5006900;28;20443;-82
2021/09/30 04:16:47;;;;;;;2.33;2.13;;;8.70;99.90;;;;;;5006110;28;20444;-82
2021/09/30 04:19:16;;;;;;;2.97;2.77;;;8.70;99.90;;;;;;5006741;28;20539;-82
2021/09/30 04:21:43;;;;;;;4.03;2.20;;;8.70;99.90;;;;;;5005398;28;20225;-80
2021/09/30 04:24:09;;;;;;;2.80;2.17;;;8.40;99.90;;;;;;5007643;28;20412;-78
2021/09/30 04:26:35;;;;;;;2.10;1.90;;;8.30;99.90;;;;;;5006145;28;20753;-82
2021/09/30 04:29:01;;;;;;;2.60;2.40;;;8.20;99.90;;;;;;5005957;28;20166;-81
2021/09/30 04:31:26;;;;;;;3.43;2.70;;;8.30;99.90;;;;;;5006783;28;20177;-81
2021/09/30 04:33:52;;;;;;;2.10;2.00;;;8.20;99.90;;;;;;5006328;28;20233;-82
2021/09/30 04:36:21;;;;;;;2.53;2.40;;;8.10;99.90;;;;;;5006241;28;20186;-82
2021/09/30 04:38:48;;;;;;;2.60;2.17;;;8.10;99.90;;;;;;5006426;28;20168;-81
2021/09/30 04:41:14;;;;;;;3.40;3.20;;;7.90;99.90;;;;;;5006306;28;20401;-81
2021/09/30 04:43:40;;;;;;;2.40;2.20;;;7.80;99.90;;;;;;5006340;28;20394;-81
2021/09/30 04:46:06;;;;;;;1.83;1.70;;;7.80;99.90;;;;;;5006715;28;20411;-81
2021/09/30 04:48:32;;;;;;;2.57;2.37;;;7.80;99.90;;;;;;5006288;28;20401;-81
2021/09/30 04:50:58;;;;;;;1.70;1.60;;;7.70;99.90;;;;;;5006706;28;20419;-81
2021/09/30 04:53:23;;;;;;;2.30;2.07;;;7.80;99.90;;;;;;5006467;28;20426;-81
2021/09/30 04:55:49;;;;;;;3.83;2.40;;;7.80;99.90;;;;;;5007362;28;20190;-82
2021/09/30 04:58:15;;;;;;;2.87;2.00;;;7.90;99.90;;;;;;5008220;28;20195;-81
2021/09/30 05:00:41;;;;;;;5.23;2.07;;;7.80;99.90;;;;;;5007620;28;20644;-81
2021/09/30 05:03:06;;;;;;;2.30;2.10;;;8.10;99.90;;;;;;5006275;28;20166;-81
2021/09/30 05:05:32;;;;;;;2.50;2.30;;;7.90;99.90;;;;;;5003967;28;20186;-81
2021/09/30 05:07:58;;;;;;;3.10;2.13;;;8.10;99.90;;;;;;5006137;28;20174;-82
2021/09/30 05:10:31;;;;;;;2.57;2.37;;;8.00;99.90;;;;;;5006164;28;20166;-81
2021/09/30 05:13:00;;;;;;;4.10;2.40;;;8.00;99.90;;;;;;5004928;28;20249;-81
2021/09/30 05:15:25;;;;;;;2.30;2.13;;;8.20;99.90;;;;;;5007392;28;20535;-82
2021/09/30 05:17:51;;;;;;;1.90;1.73;;;8.00;99.90;;;;;;5005439;28;20397;-80
2021/09/30 05:20:17;;;;;;;1.97;1.87;;;8.10;99.90;;;;;;5004690;28;20620;-82
2021/09/30 05:22:43;;;;;;;2.30;2.10;;;8.40;99.90;;;;;;5007218;28;20171;-81
2021/09/30 05:25:11;;;;;;;1.70;1.60;;;8.50;99.90;;;;;;5004445;28;20165;-80
2021/09/30 05:27:37;;;;;;;2.20;2.10;;;8.40;99.90;;;;;;4995158;28;20894;-81
2021/09/30 05:30:04;;;;;;;2.90;2.47;;;8.20;99.90;;;;;;5013576;28;20483;-81
2021/09/30 05:32:30;;;;;;;2.27;2.00;;;8.10;99.90;;;;;;5018204;28;20201;-81
2021/09/30 05:34:56;;;;;;;2.87;1.77;;;7.90;99.90;;;;;;5009619;28;20416;-81
2021/09/30 05:37:23;;;;;;;5.00;2.53;;;8.10;99.90;;;;;;5011159;28;20260;-80
2021/09/30 05:39:49;;;;;;;6.30;2.00;;;8.10;99.90;;;;;;4988752;28;20154;-80
2021/09/30 05:42:15;;;;;;;3.30;2.23;;;8.10;99.90;;;;;;5015131;28;20428;-80
2021/09/30 05:44:41;;;;;;;3.47;2.57;;;8.10;99.90;;;;;;5020025;28;20174;-81
2021/09/30 05:47:07;;;;;;;2.63;2.43;;;8.10;99.90;;;;;;5004260;28;20439;-81
2021/09/30 05:49:33;;;;;;;2.67;2.23;;;8.00;99.90;;;;;;5008513;28;20245;-81
2021/09/30 05:51:59;;;;;;;3.10;2.60;;;8.10;99.90;;;;;;5016677;28;20474;-81
2021/09/30 05:54:25;;;;;;;6.80;2.87;;;8.30;99.90;;;;;;5002866;28;20190;-81
2021/09/30 05:56:50;;;;;;;3.00;2.80;;;8.30;99.90;;;;;;5006434;28;20685;-81
2021/09/30 05:59:21;;;;;;;6.20;2.90;;;8.20;99.90;;;;;;5023479;28;20184;-81
2021/09/30 06:12:38;;;;;;;2.50;2.30;;;8.60;99.90;;;;;;4991343;28;20931;-81
2021/09/30 06:15:13;;;;;;;2.70;2.50;;;8.70;99.90;;;;;;4996359;28;20489;-80
2021/09/30 06:17:45;;;;;;;2.37;2.17;;;8.80;99.90;;;;;;4970173;28;20448;-81
2021/09/30 06:20:12;;;;;;;2.70;2.40;;;8.80;99.90;;;;;;4985930;28;20460;-81
2021/09/30 06:22:40;;;;;;;2.97;2.67;;;8.60;99.90;;;;;;4975061;28;20448;-81
2021/09/30 06:25:07;;;;;;;5.43;2.73;;;8.90;99.90;;;;;;4999217;28;20466;-81
2021/09/30 06:27:34;;;;;;;2.60;2.30;;;9.10;99.90;;;;;;4984016;28;20635;-80
2021/09/30 06:30:00;;;;;;;5.07;2.87;;;9.40;99.90;;;;;;4995979;28;20432;-81
2021/09/30 06:32:49;;;;;;;3.23;2.97;;;9.50;99.90;;;;;;4938903;29;20514;-81
2021/09/30 06:35:15;;;;;;;3.13;2.90;;;9.50;99.90;;;;;;4904315;29;21060;-81
2021/09/30 06:37:43;;;;;;;3.80;3.50;;;9.60;99.90;;;;;;4925086;29;20448;-81
2021/09/30 06:40:16;;;;;;;3.47;2.60;;;9.40;99.90;;;;;;4904229;29;20606;-81
2021/09/30 06:42:42;;;;;;;8.03;3.10;;;9.50;99.90;;;;;;4888639;29;20454;-81
2021/09/30 06:45:08;;;;;;;3.77;3.30;;;9.40;99.90;;;;;;4889453;29;20468;-79
2021/09/30 06:47:37;;;;;;;3.53;3.23;;;9.20;99.90;;;;;;4878293;29;20276;-80
2021/09/30 06:50:09;;;;;;;12.33;3.10;;;9.30;99.90;;;;;;4894853;29;20450;-81
2021/09/30 06:52:38;;;;;;;4.70;3.53;;;9.30;99.90;;;;;;4906556;29;20479;-81
2021/09/30 06:55:04;;;;;;;3.33;3.13;;;9.30;99.90;;;;;;4876376;29;20560;-81
2021/09/30 06:57:32;;;;;;;3.30;2.83;;;9.40;99.90;;;;;;4891172;29;20446;-83
2021/09/30 07:00:02;;;;;;;5.00;4.03;;;9.40;99.90;;;;;;4873395;29;20433;-81
2021/09/30 07:02:48;;;;;;;3.90;3.20;;;9.50;99.90;;;;;;4916189;29;20978;-81
2021/09/30 07:05:15;;;;;;;6.20;3.30;;;9.50;99.90;;;;;;4944750;28;20476;-81
2021/09/30 07:07:41;;;;;;;10.40;3.93;;;9.80;99.90;;;;;;4946744;28;20446;-81
2021/09/30 07:10:10;;;;;;;3.23;3.00;;;9.70;99.90;;;;;;4950399;28;20517;-80
2021/09/30 07:12:38;;;;;;;3.40;3.10;;;9.80;99.90;;;;;;4947809;28;20447;-80
2021/09/30 07:15:07;;;;;;;9.60;3.40;;;10.00;99.90;;;;;;4946663;29;20482;-81
2021/09/30 07:17:33;;;;;;;3.77;3.50;;;10.20;99.90;;;;;;4980736;28;20504;-81
2021/09/30 07:20:04;;;;;;;3.60;3.30;;;10.00;99.90;;;;;;4966773;28;20438;-80
2021/09/30 07:22:32;;;;;;;7.80;3.97;;;10.20;99.90;;;;;;4949406;28;20473;-80
2021/09/30 07:24:57;;;;;;;4.23;3.93;;;10.20;99.90;;;;;;4973839;28;20441;-81
2021/09/30 07:27:23;;;;;;;3.10;2.87;;;10.30;99.90;;;;;;5011606;28;20498;-78
2021/09/30 07:29:51;;;;;;;6.67;3.90;;;10.30;99.90;;;;;;5004091;28;20198;-81
2021/09/30 07:32:17;;;;;;;3.10;2.90;;;10.30;99.90;;;;;;5006058;28;20180;-81
2021/09/30 07:34:43;;;;;;;4.37;3.90;;;10.10;99.90;;;;;;4998033;28;20456;-81
2021/09/30 07:37:08;;;;;;;6.33;2.83;;;10.00;99.90;;;;;;5009328;28;20538;-80
2021/09/30 07:39:35;;;;;;;7.77;3.80;;;10.20;99.90;;;;;;5011765;28;20181;-81
2021/09/30 07:42:01;;;;;;;6.90;4.30;;;10.30;99.90;;;;;;5014270;28;20260;-80
2021/09/30 07:44:27;;;;;;;3.70;3.50;;;10.40;99.90;;;;;;5005051;28;20433;-81
2021/09/30 07:46:55;;;;;;;3.60;3.30;;;10.60;99.90;;;;;;5010368;28;20883;-81
2021/09/30 07:49:21;;;;;;;5.70;3.63;;;10.40;99.90;;;;;;5011057;28;20932;-80
2021/09/30 07:51:47;;;;;;;4.50;3.10;;;10.50;99.90;;;;;;5010281;28;20551;-80
2021/09/30 07:54:14;;;;;;;3.53;3.23;;;10.50;99.90;;;;;;4979068;28;20440;-80
2021/09/30 07:56:40;;;;;;;4.23;3.87;;;10.30;99.90;;;;;;4993800;28;20473;-81
2021/09/30 07:59:06;;;;;;;3.43;2.97;;;10.90;99.90;;;;;;5003638;28;20445;-81
2021/09/30 08:01:32;;;;;;;4.83;2.70;;;10.90;99.90;;;;;;4993139;28;20448;-80
2021/09/30 08:03:59;;;;;;;3.07;2.77;;;11.00;99.90;;;;;;4992695;28;20492;-80
2021/09/30 08:06:25;;;;;;;6.07;3.90;;;11.30;99.90;;;;;;4966140;28;20521;-81
2021/09/30 08:08:52;;;;;;;4.93;2.60;;;11.30;99.90;;;;;;4992782;28;20433;-81
2021/09/30 08:11:19;;;;;;;3.30;3.00;;;11.50;99.90;;;;;;5003460;28;20538;-82
2021/09/30 08:13:46;;;;;;;6.30;3.50;;;11.40;99.90;;;;;;4989552;28;20445;-81
2021/09/30 08:16:14;;;;;;;3.47;3.17;;;11.40;99.90;;;;;;4970162;28;20612;-81
2021/09/30 08:18:43;;;;;;;2.97;2.77;;;11.50;99.90;;;;;;4973890;28;20430;-81
2021/09/30 08:21:14;;;;;;;2.50;2.30;;;11.90;99.90;;;;;;4979619;28;20473;-81
2021/09/30 08:23:41;;;;;;;3.47;3.17;;;12.20;99.90;;;;;;4984048;28;20433;-81
2021/09/30 08:26:08;;;;;;;3.40;2.50;;;12.50;99.90;;;;;;5000743;28;20575;-81
2021/09/30 08:28:37;;;;;;;4.43;2.47;;;12.60;99.90;;;;;;4985122;28;20521;-82
2021/09/30 08:31:08;;;;;;;3.00;2.80;;;12.80;99.90;;;;;;4984815;28;20503;-81
2021/09/30 08:33:42;;;;;;;5.63;2.60;;;13.40;99.90;;;;;;4982484;28;20824;-81
2021/09/30 08:36:13;;;;;;;4.07;3.80;;;13.20;99.90;;;;;;4963091;28;20536;-81
2021/09/30 08:38:45;;;;;;;3.00;2.70;;;13.10;99.90;;;;;;4937647;29;20450;-81
2021/09/30 08:41:17;;;;;;;3.70;3.40;;;12.80;99.90;;;;;;4882397;29;20466;-81
2021/09/30 08:43:44;;;;;;;3.63;2.03;;;13.10;99.90;;;;;;4866169;29;20438;-80
2021/09/30 08:46:14;;;;;;;4.90;2.87;;;13.70;99.90;;;;;;4852799;29;20483;-81
2021/09/30 08:48:43;;;;;;;1.60;1.50;;;14.20;99.90;;;;;;4819605;29;20487;-81
2021/09/30 08:51:13;;;;;;;7.33;1.80;;;14.00;99.90;;;;;;4843746;29;20494;-82
2021/09/30 08:53:42;;;;;;;2.07;1.90;;;14.30;99.90;;;;;;4847937;29;20460;-81
2021/09/30 08:56:12;;;;;;;2.90;2.10;;;13.70;99.90;;;;;;4797806;29;21037;-80
2021/09/30 08:58:44;;;;;;;6.03;2.20;;;14.40;99.90;;;;;;4796930;29;20494;-81
2021/09/30 09:01:12;;;;;;;3.07;2.60;;;14.20;99.90;;;;;;4796028;29;20445;-81
2021/09/30 09:03:44;;;;;;;4.40;2.70;;;15.10;99.90;;;;;;4781869;30;20455;-81
2021/09/30 09:06:29;;;;;;;1.80;1.70;;;15.60;99.90;;;;;;4764423;29;20472;-81
2021/09/30 09:09:31;;;;;;;5.93;2.87;;;16.10;99.90;;;;;;4775425;30;20444;-80
2021/09/30 09:12:06;;;;;;;2.23;1.63;;;17.40;99.90;;;;;;4770314;29;20447;-81
2021/09/30 09:14:36;;;;;;;3.20;2.00;;;19.70;99.90;;;;;;4802340;29;20450;-81
2021/09/30 09:17:12;;;;;;;1.80;1.70;;;19.80;99.90;;;;;;4847084;29;20977;-82
2021/09/30 09:19:44;;;;;;;3.37;1.70;;;20.60;99.90;;;;;;4868808;29;20652;-81
2021/09/30 09:22:53;;;;;;;1.87;1.77;;;20.90;99.90;;;;;;4886971;29;20539;-81
2021/09/30 09:25:21;;;;;;;3.07;1.90;;;22.10;99.90;;;;;;4835436;29;20457;-81
2021/09/30 09:27:55;;;;;;;7.17;2.60;;;20.50;99.90;;;;;;4836511;29;20456;-81
2021/09/30 09:30:41;;;;;;;2.50;2.13;;;19.20;99.90;;;;;;4859921;29;20474;-80
2021/09/30 09:33:14;;;;;;;6.93;2.50;;;17.30;99.90;;;;;;4884740;29;20506;-81
2021/09/30 09:35:58;;;;;;;3.93;1.70;;;18.10;99.90;;;;;;4899185;29;20612;-81
2021/09/30 09:38:31;;;;;;;4.77;1.80;;;18.60;99.90;;;;;;4916106;29;20471;-80
2021/09/30 09:41:04;;;;;;;2.00;1.90;;;19.20;99.90;;;;;;4900184;29;20919;-81
2021/09/30 09:43:39;;;;;;;2.40;1.90;;;17.50;99.90;;;;;;4907945;29;20444;-80
2021/09/30 09:46:08;;;;;;;5.37;2.10;;;17.90;99.90;;;;;;4923135;29;20538;-80
2021/09/30 09:48:38;;;;;;;3.33;2.20;;;16.60;99.90;;;;;;4937398;29;21363;-80
2021/09/30 09:51:10;;;;;;;2.97;1.50;;;15.40;99.90;;;;;;4910617;29;20463;-81
2021/09/30 09:53:39;;;;;;;2.00;1.47;;;15.30;99.90;;;;;;4943085;29;20465;-80
2021/09/30 09:56:10;;;;;;;2.13;1.90;;;15.30;99.90;;;;;;4930163;28;20475;-81
2021/09/30 09:58:55;;;;;;;6.20;1.97;;;15.70;99.90;;;;;;4952673;28;20434;-81
2021/09/30 10:01:37;;;;;;;2.13;1.93;;;15.70;99.90;;;;;;4962022;28;20457;-80
2021/09/30 10:04:03;;;;;;;4.73;2.20;;;15.10;99.90;;;;;;4961441;28;20493;-81
2021/09/30 10:06:33;;;;;;;4.20;2.93;;;14.80;99.90;;;;;;4959554;29;20438;-80
2021/09/30 10:09:06;;;;;;;2.80;1.97;;;14.50;99.90;;;;;;4930308;29;20443;-80
2021/09/30 10:11:34;;;;;;;2.67;1.70;;;14.30;99.90;;;;;;4931439;29;20450;-81
2021/09/30 10:14:03;;;;;;;2.87;1.50;;;14.80;99.90;;;;;;4945658;29;20431;-81
2021/09/30 10:16:32;;;;;;;2.37;1.60;;;15.20;99.90;;;;;;4945834;29;20648;-81
2021/09/30 10:19:01;;;;;;;4.60;1.50;;;15.60;99.90;;;;;;4945385;29;20452;-81
2021/09/30 10:21:47;;;;;;;3.30;1.80;;;17.20;99.90;;;;;;4943282;29;20514;-82
2021/09/30 10:24:19;;;;;;;2.80;1.33;;;18.30;99.90;;;;;;4944302;29;20446;-81
2021/09/30 10:26:57;;;;;;;2.60;1.80;;;17.80;99.90;;;;;;4927604;29;20439;-80
2021/09/30 10:29:39;;;;;;;1.60;1.20;;;19.30;99.90;;;;;;4944779;29;20446;-80
2021/09/30 10:32:08;;;;;;;3.13;1.50;;;19.80;99.90;;;;;;4929385;29;20446;-82
2021/09/30 10:34:42;;;;;;;3.50;1.70;;;19.00;99.90;;;;;;4949422;28;20533;-78
2021/09/30 10:37:20;;;;;;;2.53;1.63;;;18.00;99.90;;;;;;4960802;28;20925;-80
2021/09/30 10:40:23;;;;;;;4.23;1.53;;;17.50;99.90;;;;;;4979775;28;20521;-81
2021/09/30 10:43:24;;;;;;;6.80;1.60;;;17.10;99.90;;;;;;4936985;29;20478;-81
2021/09/30 10:45:50;;;;;;;1.97;1.47;;;16.70;99.90;;;;;;4911693;29;20519;-81
2021/09/30 10:48:39;;;;;;;1.20;1.10;;;16.60;99.90;;;;;;4937638;29;20436;-77
2021/09/30 10:51:12;;;;;;;1.63;1.40;;;16.60;99.90;;;;;;4913688;29;20464;-80
2021/09/30 10:53:59;;;;;;;3.87;1.50;;;17.10;99.90;;;;;;4910940;29;20440;-79
2021/09/30 10:56:38;;;;;;;2.13;1.47;;;16.90;99.90;;;;;;4918865;29;20543;-78
2021/09/30 10:59:35;;;;;;;2.30;1.40;;;16.70;99.90;;;;;;4927519;29;20778;-80
2021/09/30 11:02:01;;;;;;;1.53;1.40;;;16.40;99.90;;;;;;4932940;29;20498;-78
2021/09/30 11:04:28;;;;;;;2.43;1.53;;;16.10;99.90;;;;;;4935028;29;20443;-79
2021/09/30 11:07:14;;;;;;;2.77;1.40;;;16.50;99.90;;;;;;4888334;29;20520;-80
2021/09/30 11:09:40;;;;;;;1.80;1.33;;;17.40;99.90;;;;;;4897208;29;20449;-81
2021/09/30 11:12:09;;;;;;;6.00;1.97;;;17.50;99.90;;;;;;4898178;29;20468;-82
2021/09/30 11:14:56;;;;;;;2.77;1.80;;;17.20;99.90;;;;;;4880582;29;20209;-81
2021/09/30 11:17:40;;;;;;;4.17;2.00;;;17.20;99.90;;;;;;4880738;29;20506;-82
2021/09/30 11:20:30;;;;;;;2.97;1.90;;;17.00;99.90;;;;;;4907596;29;20476;-79
2021/09/30 11:22:56;;;;;;;1.50;1.40;;;16.70;99.90;;;;;;4920714;29;20453;-81
2021/09/30 11:25:52;;;;;;;4.10;1.43;;;16.20;99.90;;;;;;4939868;28;20450;-82
2021/09/30 11:28:18;;;;;;;1.93;1.73;;;15.70;99.90;;;;;;4973175;28;20210;-81
2021/09/30 11:30:44;;;;;;;2.87;1.70;;;15.70;99.90;;;;;;4959995;28;20438;-78
2021/09/30 11:33:10;;;;;;;1.67;1.43;;;15.60;99.90;;;;;;4959615;28;20482;-81
2021/09/30 11:35:36;;;;;;;2.80;1.20;;;15.80;99.90;;;;;;4927674;28;20477;-80
2021/09/30 11:38:03;;;;;;;1.40;1.30;;;15.80;99.90;;;;;;4967784;28;20452;-80
2021/09/30 11:40:28;;;;;;;2.83;1.50;;;16.00;99.90;;;;;;5011015;28;20440;-80
2021/09/30 11:43:04;;;;;;;5.13;1.20;;;16.00;99.90;;;;;;5008428;28;20428;-78
2021/09/30 11:45:33;;;;;;;1.50;1.40;;;16.40;99.90;;;;;;5019783;28;20250;-82
2021/09/30 11:48:07;;;;;;;2.13;1.43;;;17.10;99.90;;;;;;5016243;28;20440;-79
2021/09/30 11:50:34;;;;;;;3.10;1.30;;;17.20;99.90;;;;;;4985954;28;20440;-79
2021/09/30 11:53:04;;;;;;;3.40;3.10;;;18.40;99.90;;;;;;5010337;28;20441;-82
2021/09/30 11:55:31;;;;;;;1.70;1.60;;;18.30;99.90;;;;;;5008033;28;20488;-82
2021/09/30 11:58:01;;;;;;;1.30;1.20;;;19.00;99.90;;;;;;5009845;28;20547;-82
2021/09/30 12:00:27;;;;;;;6.03;1.63;;;19.70;98.30;;;;;;5002992;28;20519;-81
2021/09/30 12:02:58;;;;;;;1.20;1.10;;;21.20;96.00;;;;;;5008724;28;20443;-81
2021/09/30 12:05:28;;;;;;;4.83;2.33;;;21.50;92.00;;;;;;4997867;28;20432;-81
2021/09/30 12:07:55;;;;;;;1.57;1.40;;;19.10;93.70;;;;;;4990244;28;20503;-81
2021/09/30 12:10:21;;;;;;;1.43;1.33;;;19.40;95.10;;;;;;4991106;28;20530;-80
2021/09/30 12:12:47;;;;;;;4.73;1.60;;;19.90;92.50;;;;;;4979689;28;20937;-79
2021/09/30 12:15:14;;;;;;;2.03;1.30;;;19.70;92.50;;;;;;5004796;28;20467;-79
2021/09/30 12:17:42;;;;;;;4.43;1.83;;;19.40;92.80;;;;;;5009116;28;20444;-79
2021/09/30 12:20:11;;;;;;;1.40;1.30;;;19.50;92.50;;;;;;4974075;28;20516;-79
2021/09/30 12:22:43;;;;;;;2.30;1.97;;;18.40;94.80;;;;;;5003510;28;20468;-80
2021/09/30 12:25:20;;;;;;;2.10;1.47;;;18.60;96.70;;;;;;5000041;28;20539;-80
2021/09/30 12:27:54;;;;;;;4.70;2.20;;;20.30;94.40;;;;;;5008839;28;20950;-80
2021/09/30 12:30:25;;;;;;;24.07;16.23;;;21.70;91.50;;;;;;4999967;28;20449;-81
2021/09/30 12:33:00;;;;;;;2.23;1.70;;;21.50;90.00;;;;;;5002430;28;20454;-80
2021/09/30 12:35:29;;;;;;;1.67;1.30;;;21.30;91.20;;;;;;4997660;28;20482;-80
2021/09/30 12:37:59;;;;;;;3.50;1.30;;;19.40;91.90;;;;;;5012528;28;20452;-81
2021/09/30 12:40:28;;;;;;;6.57;1.97;;;18.60;93.00;;;;;;5007625;28;20991;-80
2021/09/30 12:43:07;;;;;;;1.87;1.50;;;19.60;94.70;;;;;;5005117;28;21253;-80
2021/09/30 12:45:45;;;;;;;1.70;1.60;;;20.30;91.90;;;;;;5006227;28;20439;-82
2021/09/30 12:48:15;;;;;;;3.00;1.80;;;20.40;93.30;;;;;;5037198;28;20474;-81
2021/09/30 12:50:51;;;;;;;3.30;1.30;;;21.40;91.80;;;;;;5016003;28;20582;-82
2021/09/30 12:53:20;;;;;;;3.00;1.73;;;21.00;91.60;;;;;;5008224;28;20455;-80
2021/09/30 12:55:50;;;;;;;2.20;1.53;;;20.00;91.90;;;;;;5012317;28;20464;-80
2021/09/30 12:58:40;;;;;;;4.13;1.60;;;19.30;92.40;;;;;;4971363;28;20545;-80
2021/09/30 13:01:34;;;;;;;1.63;1.50;;;19.60;94.20;;;;;;4997039;28;20530;-80
2021/09/30 13:04:05;;;;;;;1.30;1.20;;;18.00;93.00;;;;;;4984266;28;20975;-80
2021/09/30 13:06:32;;;;;;;2.77;1.17;;;17.70;95.60;;;;;;5005296;28;20456;-80
2021/09/30 13:08:58;;;;;;;2.30;1.77;;;17.80;96.90;;;;;;4947222;29;20451;-82
2021/09/30 13:11:31;;;;;;;1.53;1.20;;;17.90;95.80;;;;;;4914188;29;20466;-82
2021/09/30 13:14:21;;;;;;;1.97;1.50;;;19.40;96.10;;;;;;4942708;29;20464;-82
2021/09/30 13:16:57;;;;;;;1.27;1.17;;;18.90;94.10;;;;;;4943963;29;20923;-82
2021/09/30 13:19:57;;;;;;;2.70;1.30;;;19.50;95.70;;;;;;4913130;29;20940;-82
2021/09/30 13:22:42;;;;;;;1.70;1.27;;;18.90;92.90;;;;;;4907281;29;20518;-82
2021/09/30 13:25:14;;;;;;;5.57;1.67;;;21.10;88.70;;;;;;4931136;29;20444;-80
2021/09/30 13:27:42;;;;;;;3.20;1.57;;;19.70;86.00;;;;;;4923146;29;20460;-81
2021/09/30 13:30:12;;;;;;;1.30;1.13;;;20.00;87.50;;;;;;4903894;29;20842;-81
2021/09/30 13:32:40;;;;;;;1.30;1.10;;;20.00;89.40;;;;;;4924935;29;20475;-81
2021/09/30 13:35:09;;;;;;;2.80;1.60;;;21.00;88.40;;;;;;4958086;29;20449;-81
2021/09/30 13:37:35;;;;;;;1.40;1.30;;;21.20;86.50;;;;;;4942017;29;20466;-81
2021/09/30 13:40:06;;;;;;;4.40;1.37;;;20.90;88.40;;;;;;4970905;28;20459;-82
2021/09/30 13:42:39;;;;;;;1.90;1.50;;;20.50;87.50;;;;;;5000802;28;20506;-81
2021/09/30 13:45:09;;;;;;;1.87;1.23;;;19.10;90.70;;;;;;4987188;28;20481;-81
2021/09/30 13:47:35;;;;;;;2.57;1.30;;;18.70;92.40;;;;;;4999549;28;20436;-82
2021/09/30 13:50:01;;;;;;;3.07;1.50;;;18.70;92.20;;;;;;5002157;28;20454;-81
2021/09/30 13:52:29;;;;;;;3.30;1.50;;;18.40;93.10;;;;;;4998447;28;20637;-83
2021/09/30 13:55:01;;;;;;;2.67;1.80;;;18.20;95.20;;;;;;4991967;28;21014;-81
2021/09/30 13:57:27;;;;;;;1.73;1.40;;;18.40;93.50;;;;;;4986865;28;20463;-81
2021/09/30 13:59:53;;;;;;;1.67;1.57;;;18.10;95.30;;;;;;4987029;28;20522;-82
2021/09/30 14:02:18;;;;;;;2.07;1.87;;;17.90;94.30;;;;;;4984826;28;20213;-80
2021/09/30 14:04:44;;;;;;;2.00;1.80;;;18.00;94.00;;;;;;4985552;28;20312;-79
2021/09/30 14:07:10;;;;;;;2.53;1.87;;;18.10;93.30;;;;;;5005119;28;20189;-80
2021/09/30 14:09:37;;;;;;;1.23;1.13;;;17.20;93.40;;;;;;4984653;28;20503;-82
2021/09/30 14:12:04;;;;;;;2.03;1.40;;;17.90;94.30;;;;;;5009228;28;20196;-82
2021/09/30 14:14:30;;;;;;;3.47;1.57;;;18.20;93.90;;;;;;5014895;28;20443;-83
2021/09/30 14:16:57;;;;;;;2.00;1.50;;;18.80;93.10;;;;;;5008028;28;20598;-79
2021/09/30 14:19:25;;;;;;;3.00;1.50;;;19.30;92.30;;;;;;5009337;28;20448;-79
2021/09/30 14:21:53;;;;;;;3.00;1.90;;;19.00;92.20;;;;;;4968861;28;20479;-80
2021/09/30 14:24:21;;;;;;;2.80;1.33;;;19.50;91.90;;;;;;5006672;28;20440;-80
2021/09/30 14:26:47;;;;;;;3.63;1.40;;;20.10;94.10;;;;;;4955911;28;20439;-80
2021/09/30 14:29:13;;;;;;;1.60;1.40;;;21.00;91.70;;;;;;4963303;28;20443;-80
2021/09/30 14:31:40;;;;;;;7.80;1.90;;;21.00;93.80;;;;;;4985746;28;20442;-81
2021/09/30 14:34:06;;;;;;;1.33;1.23;;;21.00;89.20;;;;;;5003429;28;20451;-79
2021/09/30 14:36:33;;;;;;;1.80;1.40;;;20.60;87.00;;;;;;5001077;28;20834;-80
2021/09/30 14:38:59;;;;;;;1.63;1.40;;;20.40;88.70;;;;;;4972232;28;20436;-80
2021/09/30 14:41:26;;;;;;;1.80;1.53;;;20.30;91.60;;;;;;4985166;28;20511;-80
2021/09/30 14:43:53;;;;;;;2.90;1.50;;;20.00;85.50;;;;;;4997978;28;20432;-81
2021/09/30 14:46:19;;;;;;;2.50;1.30;;;19.40;84.60;;;;;;5001437;28;20437;-79
2021/09/30 14:48:46;;;;;;;1.30;1.20;;;19.40;85.90;;;;;;4985111;28;20607;-80
2021/09/30 14:51:14;;;;;;;2.33;1.40;;;18.80;85.40;;;;;;5001911;28;20303;-79
2021/09/30 14:53:40;;;;;;;1.53;1.20;;;18.90;86.40;;;;;;4976056;28;20437;-79
2021/09/30 14:56:08;;;;;;;2.10;1.40;;;19.40;83.80;;;;;;5006646;28;20535;-79
2021/09/30 14:58:35;;;;;;;2.40;1.37;;;19.10;85.20;;;;;;5004062;28;20463;-77
2021/09/30 15:01:03;;;;;;;4.37;1.67;;;20.10;81.70;;;;;;5005418;28;20524;-79
2021/09/30 15:03:29;;;;;;;1.90;1.10;;;20.70;83.70;;;;;;5009643;28;20428;-80
2021/09/30 15:05:57;;;;;;;2.53;1.33;;;20.70;78.70;;;;;;5028747;28;20448;-81
2021/09/30 15:08:28;;;;;;;3.23;1.30;;;20.50;79.20;;;;;;5025097;28;20526;-80
2021/09/30 15:10:54;;;;;;;1.77;1.30;;;20.60;80.00;;;;;;4987689;28;20498;-80
2021/09/30 15:13:21;;;;;;;3.60;1.80;;;20.80;76.50;;;;;;5003245;28;20496;-83
2021/09/30 15:15:50;;;;;;;3.17;1.40;;;20.40;77.50;;;;;;5005922;28;20204;-81
2021/09/30 15:21:21;;;;;;;2.53;1.27;;;18.20;78.60;;;;;;4924788;29;20293;-80
2021/09/30 15:23:50;;;;;;;1.60;1.37;;;17.50;80.50;;;;;;4936214;29;20430;-80
2021/09/30 15:26:19;;;;;;;2.27;1.50;;;17.00;82.60;;;;;;4940903;29;20967;-80
2021/09/30 15:28:45;;;;;;;3.93;2.07;;;17.50;87.10;;;;;;4926079;29;20475;-80
2021/09/30 15:31:11;;;;;;;1.43;1.30;;;17.70;84.70;;;;;;4941537;29;20413;-81
2021/09/30 15:33:37;;;;;;;1.70;1.43;;;17.20;84.20;;;;;;4927689;29;20442;-81
2021/09/30 15:36:03;;;;;;;1.77;1.27;;;17.30;86.50;;;;;;4931323;29;20448;-80
2021/09/30 15:38:29;;;;;;;1.40;1.13;;;17.30;86.20;;;;;;4915060;29;20184;-80
2021/09/30 15:40:58;;;;;;;2.30;1.50;;;17.10;87.00;;;;;;4930036;29;20527;-79
2021/09/30 15:43:25;;;;;;;1.43;1.33;;;17.50;87.50;;;;;;4930383;29;20423;-81